sensor_id;sensor_type;location;lat;lon;timestamp;P1;durP1;ratioP1;P2;durP2;ratioP2
18720;SDS011;9489;50.948;3.114;2024-01-30T00:02:21;11.88;;;10.70;;
18720;SDS011;9489;50.948;3.114;2024-01-30T00:04:47;12.27;;;11.13;;
18720;SDS011;9489;50.948;3.114;2024-01-30T00:07:13;12.20;;;10.98;;
18720;SDS011;9489;50.948;3.114;2024-01-30T00:09:38;11.38;;;10.27;;
18720;SDS011;9489;50.948;3.114;2024-01-30T00:12:05;11.52;;;10.50;;
18720;SDS011;9489;50.948;3.114;2024-01-30T00:14:31;12.02;;;10.90;;
18720;SDS011;9489;50.948;3.114;2024-01-30T00:16:57;11.95;;;10.75;;
18720;SDS011;9489;50.948;3.114;2024-01-30T00:19:22;12.13;;;10.88;;
18720;SDS011;9489;50.948;3.114;2024-01-30T00:21:48;13.25;;;11.98;;
18720;SDS011;9489;50.948;3.114;2024-01-30T00:24:14;12.75;;;10.70;;
18720;SDS011;9489;50.948;3.114;2024-01-30T00:26:39;12.77;;;11.45;;
18720;SDS011;9489;50.948;3.114;2024-01-30T00:29:05;12.68;;;11.57;;
18720;SDS011;9489;50.948;3.114;2024-01-30T00:31:31;13.15;;;10.75;;
18720;SDS011;9489;50.948;3.114;2024-01-30T00:33:57;12.23;;;11.10;;
18720;SDS011;9489;50.948;3.114;2024-01-30T00:36:22;11.63;;;10.45;;
18720;SDS011;9489;50.948;3.114;2024-01-30T00:38:48;13.48;;;11.20;;
18720;SDS011;9489;50.948;3.114;2024-01-30T00:41:14;11.77;;;10.63;;
18720;SDS011;9489;50.948;3.114;2024-01-30T00:43:42;13.05;;;11.82;;
18720;SDS011;9489;50.948;3.114;2024-01-30T00:46:07;13.30;;;12.05;;
18720;SDS011;9489;50.948;3.114;2024-01-30T00:48:33;13.05;;;11.80;;
18720;SDS011;9489;50.948;3.114;2024-01-30T00:50:59;13.75;;;12.30;;
18720;SDS011;9489;50.948;3.114;2024-01-30T00:53:24;12.68;;;11.38;;
18720;SDS011;9489;50.948;3.114;2024-01-30T00:55:51;14.55;;;11.85;;
18720;SDS011;9489;50.948;3.114;2024-01-30T00:58:17;12.95;;;11.57;;
18720;SDS011;9489;50.948;3.114;2024-01-30T01:00:44;12.75;;;11.55;;
18720;SDS011;9489;50.948;3.114;2024-01-30T01:03:10;13.80;;;12.20;;
18720;SDS011;9489;50.948;3.114;2024-01-30T01:05:36;12.73;;;11.52;;
18720;SDS011;9489;50.948;3.114;2024-01-30T01:08:01;14.20;;;11.85;;
18720;SDS011;9489;50.948;3.114;2024-01-30T01:10:27;13.32;;;11.85;;
18720;SDS011;9489;50.948;3.114;2024-01-30T01:12:53;12.70;;;11.43;;
18720;SDS011;9489;50.948;3.114;2024-01-30T01:15:19;13.75;;;12.23;;
18720;SDS011;9489;50.948;3.114;2024-01-30T01:17:44;13.35;;;12.05;;
18720;SDS011;9489;50.948;3.114;2024-01-30T01:20:10;13.02;;;11.52;;
18720;SDS011;9489;50.948;3.114;2024-01-30T01:22:37;13.40;;;12.20;;
18720;SDS011;9489;50.948;3.114;2024-01-30T01:25:06;12.70;;;11.52;;
18720;SDS011;9489;50.948;3.114;2024-01-30T01:27:33;13.65;;;12.32;;
18720;SDS011;9489;50.948;3.114;2024-01-30T01:29:59;13.00;;;11.70;;
18720;SDS011;9489;50.948;3.114;2024-01-30T01:32:25;12.70;;;11.40;;
18720;SDS011;9489;50.948;3.114;2024-01-30T01:34:51;12.52;;;11.35;;
18720;SDS011;9489;50.948;3.114;2024-01-30T01:37:17;13.13;;;11.93;;
18720;SDS011;9489;50.948;3.114;2024-01-30T01:39:43;13.57;;;12.18;;
18720;SDS011;9489;50.948;3.114;2024-01-30T01:42:08;13.43;;;12.13;;
18720;SDS011;9489;50.948;3.114;2024-01-30T01:44:34;13.00;;;11.68;;
18720;SDS011;9489;50.948;3.114;2024-01-30T01:47:00;13.68;;;11.85;;
18720;SDS011;9489;50.948;3.114;2024-01-30T01:49:26;12.73;;;11.52;;
18720;SDS011;9489;50.948;3.114;2024-01-30T01:51:54;13.00;;;11.80;;
18720;SDS011;9489;50.948;3.114;2024-01-30T01:54:21;13.45;;;12.02;;
18720;SDS011;9489;50.948;3.114;2024-01-30T01:56:49;12.75;;;11.45;;
18720;SDS011;9489;50.948;3.114;2024-01-30T01:59:15;15.07;;;12.77;;
18720;SDS011;9489;50.948;3.114;2024-01-30T02:01:41;13.98;;;12.68;;
18720;SDS011;9489;50.948;3.114;2024-01-30T02:04:08;13.10;;;11.85;;
18720;SDS011;9489;50.948;3.114;2024-01-30T02:06:34;12.88;;;11.77;;
18720;SDS011;9489;50.948;3.114;2024-01-30T02:09:00;13.77;;;12.38;;
18720;SDS011;9489;50.948;3.114;2024-01-30T02:11:26;14.38;;;13.07;;
18720;SDS011;9489;50.948;3.114;2024-01-30T02:13:52;14.05;;;12.65;;
18720;SDS011;9489;50.948;3.114;2024-01-30T02:16:18;16.05;;;12.73;;
18720;SDS011;9489;50.948;3.114;2024-01-30T02:18:44;14.15;;;12.77;;
18720;SDS011;9489;50.948;3.114;2024-01-30T02:21:12;15.10;;;13.07;;
18720;SDS011;9489;50.948;3.114;2024-01-30T02:23:42;13.95;;;12.57;;
18720;SDS011;9489;50.948;3.114;2024-01-30T02:26:09;13.13;;;11.80;;
18720;SDS011;9489;50.948;3.114;2024-01-30T02:28:37;13.98;;;12.57;;
18720;SDS011;9489;50.948;3.114;2024-01-30T02:31:03;13.52;;;12.18;;
18720;SDS011;9489;50.948;3.114;2024-01-30T02:33:28;12.90;;;11.60;;
18720;SDS011;9489;50.948;3.114;2024-01-30T02:35:54;13.13;;;11.90;;
18720;SDS011;9489;50.948;3.114;2024-01-30T02:38:20;12.32;;;11.30;;
18720;SDS011;9489;50.948;3.114;2024-01-30T02:40:46;14.07;;;12.68;;
18720;SDS011;9489;50.948;3.114;2024-01-30T02:43:11;14.25;;;12.85;;
18720;SDS011;9489;50.948;3.114;2024-01-30T02:45:37;13.65;;;11.85;;
18720;SDS011;9489;50.948;3.114;2024-01-30T02:48:03;13.80;;;11.68;;
18720;SDS011;9489;50.948;3.114;2024-01-30T02:50:28;13.48;;;12.18;;
18720;SDS011;9489;50.948;3.114;2024-01-30T02:52:54;13.52;;;12.15;;
18720;SDS011;9489;50.948;3.114;2024-01-30T02:55:20;12.82;;;11.43;;
18720;SDS011;9489;50.948;3.114;2024-01-30T02:57:45;12.77;;;11.48;;
18720;SDS011;9489;50.948;3.114;2024-01-30T03:00:11;11.68;;;10.57;;
18720;SDS011;9489;50.948;3.114;2024-01-30T03:02:37;13.15;;;11.80;;
18720;SDS011;9489;50.948;3.114;2024-01-30T03:05:03;13.38;;;12.18;;
18720;SDS011;9489;50.948;3.114;2024-01-30T03:07:30;11.93;;;10.82;;
18720;SDS011;9489;50.948;3.114;2024-01-30T03:09:56;13.40;;;12.05;;
18720;SDS011;9489;50.948;3.114;2024-01-30T03:12:22;12.25;;;11.07;;
18720;SDS011;9489;50.948;3.114;2024-01-30T03:14:47;13.38;;;11.45;;
18720;SDS011;9489;50.948;3.114;2024-01-30T03:17:14;13.57;;;11.90;;
18720;SDS011;9489;50.948;3.114;2024-01-30T03:19:40;12.40;;;11.15;;
18720;SDS011;9489;50.948;3.114;2024-01-30T03:22:06;14.43;;;12.90;;
18720;SDS011;9489;50.948;3.114;2024-01-30T03:24:31;13.40;;;12.10;;
18720;SDS011;9489;50.948;3.114;2024-01-30T03:26:57;12.40;;;11.30;;
18720;SDS011;9489;50.948;3.114;2024-01-30T03:29:23;13.40;;;12.15;;
18720;SDS011;9489;50.948;3.114;2024-01-30T03:31:48;13.05;;;11.75;;
18720;SDS011;9489;50.948;3.114;2024-01-30T03:34:14;12.38;;;11.25;;
18720;SDS011;9489;50.948;3.114;2024-01-30T03:36:39;14.40;;;11.55;;
18720;SDS011;9489;50.948;3.114;2024-01-30T03:39:05;14.93;;;12.70;;
18720;SDS011;9489;50.948;3.114;2024-01-30T03:41:31;13.18;;;11.88;;
18720;SDS011;9489;50.948;3.114;2024-01-30T03:43:57;13.45;;;12.02;;
18720;SDS011;9489;50.948;3.114;2024-01-30T03:46:22;13.50;;;12.10;;
18720;SDS011;9489;50.948;3.114;2024-01-30T03:48:48;13.20;;;11.80;;
18720;SDS011;9489;50.948;3.114;2024-01-30T03:51:14;13.50;;;12.30;;
18720;SDS011;9489;50.948;3.114;2024-01-30T03:53:44;13.15;;;11.85;;
18720;SDS011;9489;50.948;3.114;2024-01-30T03:56:11;13.52;;;12.18;;
18720;SDS011;9489;50.948;3.114;2024-01-30T03:58:38;13.10;;;11.85;;
18720;SDS011;9489;50.948;3.114;2024-01-30T04:01:04;13.00;;;11.80;;
18720;SDS011;9489;50.948;3.114;2024-01-30T04:03:30;12.90;;;11.70;;
18720;SDS011;9489;50.948;3.114;2024-01-30T04:05:55;13.55;;;12.15;;
18720;SDS011;9489;50.948;3.114;2024-01-30T04:08:21;14.00;;;12.60;;
18720;SDS011;9489;50.948;3.114;2024-01-30T04:10:47;13.38;;;12.05;;
18720;SDS011;9489;50.948;3.114;2024-01-30T04:13:13;15.32;;;12.52;;
18720;SDS011;9489;50.948;3.114;2024-01-30T04:15:39;13.52;;;12.23;;
18720;SDS011;9489;50.948;3.114;2024-01-30T04:18:04;13.98;;;12.65;;
18720;SDS011;9489;50.948;3.114;2024-01-30T04:20:30;13.18;;;11.80;;
18720;SDS011;9489;50.948;3.114;2024-01-30T04:22:56;15.52;;;12.52;;
18720;SDS011;9489;50.948;3.114;2024-01-30T04:25:22;12.65;;;11.35;;
18720;SDS011;9489;50.948;3.114;2024-01-30T04:27:48;13.13;;;11.90;;
18720;SDS011;9489;50.948;3.114;2024-01-30T04:30:13;13.77;;;12.25;;
18720;SDS011;9489;50.948;3.114;2024-01-30T04:32:39;13.32;;;11.70;;
18720;SDS011;9489;50.948;3.114;2024-01-30T04:35:05;12.98;;;11.63;;
18720;SDS011;9489;50.948;3.114;2024-01-30T04:37:31;13.98;;;12.48;;
18720;SDS011;9489;50.948;3.114;2024-01-30T04:39:57;12.18;;;11.13;;
18720;SDS011;9489;50.948;3.114;2024-01-30T04:42:22;13.13;;;11.60;;
18720;SDS011;9489;50.948;3.114;2024-01-30T04:44:49;15.10;;;12.38;;
18720;SDS011;9489;50.948;3.114;2024-01-30T04:47:14;13.73;;;12.15;;
18720;SDS011;9489;50.948;3.114;2024-01-30T04:49:40;12.93;;;10.90;;
18720;SDS011;9489;50.948;3.114;2024-01-30T04:52:07;13.15;;;11.85;;
18720;SDS011;9489;50.948;3.114;2024-01-30T04:54:33;12.50;;;11.23;;
18720;SDS011;9489;50.948;3.114;2024-01-30T04:56:59;13.38;;;11.75;;
18720;SDS011;9489;50.948;3.114;2024-01-30T04:59:25;16.48;;;10.93;;
18720;SDS011;9489;50.948;3.114;2024-01-30T05:01:51;13.50;;;12.00;;
18720;SDS011;9489;50.948;3.114;2024-01-30T05:04:17;16.60;;;12.27;;
18720;SDS011;9489;50.948;3.114;2024-01-30T05:06:42;12.23;;;10.85;;
18720;SDS011;9489;50.948;3.114;2024-01-30T05:09:08;12.68;;;11.38;;
18720;SDS011;9489;50.948;3.114;2024-01-30T05:11:37;12.98;;;10.98;;
18720;SDS011;9489;50.948;3.114;2024-01-30T05:14:03;14.85;;;11.93;;
18720;SDS011;9489;50.948;3.114;2024-01-30T05:16:29;12.82;;;11.50;;
18720;SDS011;9489;50.948;3.114;2024-01-30T05:18:55;15.48;;;11.98;;
18720;SDS011;9489;50.948;3.114;2024-01-30T05:21:21;14.10;;;12.70;;
18720;SDS011;9489;50.948;3.114;2024-01-30T05:23:47;13.02;;;11.63;;
18720;SDS011;9489;50.948;3.114;2024-01-30T05:26:12;13.10;;;11.70;;
18720;SDS011;9489;50.948;3.114;2024-01-30T05:28:38;13.10;;;11.73;;
18720;SDS011;9489;50.948;3.114;2024-01-30T05:31:04;12.13;;;10.93;;
18720;SDS011;9489;50.948;3.114;2024-01-30T05:33:29;13.00;;;11.70;;
18720;SDS011;9489;50.948;3.114;2024-01-30T05:35:55;12.88;;;11.27;;
18720;SDS011;9489;50.948;3.114;2024-01-30T05:38:20;13.15;;;11.45;;
18720;SDS011;9489;50.948;3.114;2024-01-30T05:40:46;13.23;;;11.93;;
18720;SDS011;9489;50.948;3.114;2024-01-30T05:43:12;13.48;;;10.88;;
18720;SDS011;9489;50.948;3.114;2024-01-30T05:45:37;12.20;;;10.88;;
18720;SDS011;9489;50.948;3.114;2024-01-30T05:48:03;11.80;;;10.63;;
18720;SDS011;9489;50.948;3.114;2024-01-30T05:50:29;12.18;;;11.00;;
18720;SDS011;9489;50.948;3.114;2024-01-30T05:52:55;12.75;;;11.43;;
18720;SDS011;9489;50.948;3.114;2024-01-30T05:55:21;12.45;;;11.18;;
18720;SDS011;9489;50.948;3.114;2024-01-30T05:57:47;12.63;;;11.43;;
18720;SDS011;9489;50.948;3.114;2024-01-30T06:00:12;12.10;;;10.90;;
18720;SDS011;9489;50.948;3.114;2024-01-30T06:02:38;12.73;;;11.35;;
18720;SDS011;9489;50.948;3.114;2024-01-30T06:05:04;12.60;;;11.40;;
18720;SDS011;9489;50.948;3.114;2024-01-30T06:07:31;12.75;;;11.45;;
18720;SDS011;9489;50.948;3.114;2024-01-30T06:09:56;12.50;;;11.20;;
18720;SDS011;9489;50.948;3.114;2024-01-30T06:12:22;12.90;;;11.43;;
18720;SDS011;9489;50.948;3.114;2024-01-30T06:14:48;12.77;;;11.57;;
18720;SDS011;9489;50.948;3.114;2024-01-30T06:17:14;13.48;;;12.07;;
18720;SDS011;9489;50.948;3.114;2024-01-30T06:19:39;12.57;;;11.30;;
18720;SDS011;9489;50.948;3.114;2024-01-30T06:22:05;13.45;;;12.18;;
18720;SDS011;9489;50.948;3.114;2024-01-30T06:24:31;12.63;;;11.02;;
18720;SDS011;9489;50.948;3.114;2024-01-30T06:26:56;12.23;;;11.13;;
18720;SDS011;9489;50.948;3.114;2024-01-30T06:29:22;14.07;;;12.38;;
18720;SDS011;9489;50.948;3.114;2024-01-30T06:31:49;13.43;;;11.90;;
18720;SDS011;9489;50.948;3.114;2024-01-30T06:34:15;12.43;;;11.13;;
18720;SDS011;9489;50.948;3.114;2024-01-30T06:36:41;12.98;;;11.80;;
18720;SDS011;9489;50.948;3.114;2024-01-30T06:39:07;12.20;;;10.82;;
18720;SDS011;9489;50.948;3.114;2024-01-30T06:41:33;14.45;;;12.48;;
18720;SDS011;9489;50.948;3.114;2024-01-30T06:43:58;12.18;;;10.73;;
18720;SDS011;9489;50.948;3.114;2024-01-30T06:46:24;13.02;;;11.20;;
18720;SDS011;9489;50.948;3.114;2024-01-30T06:48:50;14.65;;;11.77;;
18720;SDS011;9489;50.948;3.114;2024-01-30T06:51:15;12.82;;;11.15;;
18720;SDS011;9489;50.948;3.114;2024-01-30T06:53:41;13.23;;;11.88;;
18720;SDS011;9489;50.948;3.114;2024-01-30T06:56:07;13.20;;;11.70;;
18720;SDS011;9489;50.948;3.114;2024-01-30T06:58:33;12.68;;;11.32;;
18720;SDS011;9489;50.948;3.114;2024-01-30T07:00:59;15.05;;;12.20;;
18720;SDS011;9489;50.948;3.114;2024-01-30T07:03:24;13.77;;;12.38;;
18720;SDS011;9489;50.948;3.114;2024-01-30T07:05:50;12.73;;;11.45;;
18720;SDS011;9489;50.948;3.114;2024-01-30T07:08:16;13.88;;;12.15;;
18720;SDS011;9489;50.948;3.114;2024-01-30T07:10:43;13.60;;;11.63;;
18720;SDS011;9489;50.948;3.114;2024-01-30T07:13:09;13.60;;;12.25;;
18720;SDS011;9489;50.948;3.114;2024-01-30T07:15:38;14.40;;;12.18;;
18720;SDS011;9489;50.948;3.114;2024-01-30T07:18:04;13.57;;;12.20;;
18720;SDS011;9489;50.948;3.114;2024-01-30T07:20:30;13.23;;;11.77;;
18720;SDS011;9489;50.948;3.114;2024-01-30T07:22:59;14.05;;;12.55;;
18720;SDS011;9489;50.948;3.114;2024-01-30T07:25:25;16.50;;;12.30;;
18720;SDS011;9489;50.948;3.114;2024-01-30T07:27:52;13.98;;;12.18;;
18720;SDS011;9489;50.948;3.114;2024-01-30T07:30:19;15.10;;;12.70;;
18720;SDS011;9489;50.948;3.114;2024-01-30T07:32:46;14.52;;;12.10;;
18720;SDS011;9489;50.948;3.114;2024-01-30T07:35:12;13.10;;;11.77;;
18720;SDS011;9489;50.948;3.114;2024-01-30T07:37:38;15.57;;;11.95;;
18720;SDS011;9489;50.948;3.114;2024-01-30T07:40:03;14.77;;;11.80;;
18720;SDS011;9489;50.948;3.114;2024-01-30T07:42:29;12.60;;;10.57;;
18720;SDS011;9489;50.948;3.114;2024-01-30T07:44:55;11.68;;;10.30;;
18720;SDS011;9489;50.948;3.114;2024-01-30T07:47:21;10.90;;;9.20;;
18720;SDS011;9489;50.948;3.114;2024-01-30T07:49:47;10.77;;;9.30;;
18720;SDS011;9489;50.948;3.114;2024-01-30T07:52:13;14.05;;;8.75;;
18720;SDS011;9489;50.948;3.114;2024-01-30T07:54:38;11.77;;;8.80;;
18720;SDS011;9489;50.948;3.114;2024-01-30T07:57:04;10.68;;;8.40;;
18720;SDS011;9489;50.948;3.114;2024-01-30T07:59:30;10.60;;;8.68;;
18720;SDS011;9489;50.948;3.114;2024-01-30T08:01:56;12.70;;;8.25;;
18720;SDS011;9489;50.948;3.114;2024-01-30T08:04:21;11.85;;;8.32;;
18720;SDS011;9489;50.948;3.114;2024-01-30T08:06:47;14.93;;;8.57;;
18720;SDS011;9489;50.948;3.114;2024-01-30T08:09:13;10.18;;;7.35;;
18720;SDS011;9489;50.948;3.114;2024-01-30T08:11:39;12.10;;;7.95;;
18720;SDS011;9489;50.948;3.114;2024-01-30T08:14:05;9.02;;;6.95;;
18720;SDS011;9489;50.948;3.114;2024-01-30T08:16:31;10.60;;;6.60;;
18720;SDS011;9489;50.948;3.114;2024-01-30T08:18:56;10.85;;;6.70;;
18720;SDS011;9489;50.948;3.114;2024-01-30T08:21:22;10.80;;;6.50;;
18720;SDS011;9489;50.948;3.114;2024-01-30T08:23:48;7.45;;;4.30;;
18720;SDS011;9489;50.948;3.114;2024-01-30T08:26:14;4.03;;;3.58;;
18720;SDS011;9489;50.948;3.114;2024-01-30T08:28:39;6.65;;;3.28;;
18720;SDS011;9489;50.948;3.114;2024-01-30T08:31:05;8.10;;;2.75;;
18720;SDS011;9489;50.948;3.114;2024-01-30T08:33:31;6.82;;;2.70;;
18720;SDS011;9489;50.948;3.114;2024-01-30T08:35:56;5.50;;;2.40;;
18720;SDS011;9489;50.948;3.114;2024-01-30T08:38:22;7.32;;;2.30;;
18720;SDS011;9489;50.948;3.114;2024-01-30T08:40:48;4.85;;;2.13;;
18720;SDS011;9489;50.948;3.114;2024-01-30T08:43:14;4.93;;;2.65;;
18720;SDS011;9489;50.948;3.114;2024-01-30T08:45:40;6.70;;;2.70;;
18720;SDS011;9489;50.948;3.114;2024-01-30T08:48:06;7.78;;;2.78;;
18720;SDS011;9489;50.948;3.114;2024-01-30T08:50:33;6.18;;;2.22;;
18720;SDS011;9489;50.948;3.114;2024-01-30T08:52:59;6.43;;;2.92;;
18720;SDS011;9489;50.948;3.114;2024-01-30T08:55:25;4.55;;;2.15;;
18720;SDS011;9489;50.948;3.114;2024-01-30T08:57:50;3.70;;;1.60;;
18720;SDS011;9489;50.948;3.114;2024-01-30T09:00:17;4.00;;;1.77;;
18720;SDS011;9489;50.948;3.114;2024-01-30T09:02:43;1.67;;;1.27;;
18720;SDS011;9489;50.948;3.114;2024-01-30T09:05:08;1.63;;;0.80;;
18720;SDS011;9489;50.948;3.114;2024-01-30T09:07:34;5.47;;;1.00;;
18720;SDS011;9489;50.948;3.114;2024-01-30T09:10:00;2.65;;;0.82;;
18720;SDS011;9489;50.948;3.114;2024-01-30T09:12:26;3.13;;;0.82;;
18720;SDS011;9489;50.948;3.114;2024-01-30T09:14:51;2.58;;;0.82;;
18720;SDS011;9489;50.948;3.114;2024-01-30T09:17:18;2.65;;;0.93;;
18720;SDS011;9489;50.948;3.114;2024-01-30T09:19:45;2.55;;;0.80;;
18720;SDS011;9489;50.948;3.114;2024-01-30T09:22:11;4.95;;;1.40;;
18720;SDS011;9489;50.948;3.114;2024-01-30T09:24:36;5.35;;;0.93;;
18720;SDS011;9489;50.948;3.114;2024-01-30T09:27:02;4.32;;;1.00;;
18720;SDS011;9489;50.948;3.114;2024-01-30T09:29:28;2.10;;;1.15;;
18720;SDS011;9489;50.948;3.114;2024-01-30T09:31:54;4.40;;;1.60;;
18720;SDS011;9489;50.948;3.114;2024-01-30T09:34:19;4.50;;;1.73;;
18720;SDS011;9489;50.948;3.114;2024-01-30T09:36:45;3.85;;;1.00;;
18720;SDS011;9489;50.948;3.114;2024-01-30T09:39:11;1.80;;;0.93;;
18720;SDS011;9489;50.948;3.114;2024-01-30T09:41:41;4.13;;;1.00;;
18720;SDS011;9489;50.948;3.114;2024-01-30T09:44:19;4.45;;;1.20;;
18720;SDS011;9489;50.948;3.114;2024-01-30T09:46:46;4.55;;;1.40;;
18720;SDS011;9489;50.948;3.114;2024-01-30T09:49:15;5.03;;;1.40;;
18720;SDS011;9489;50.948;3.114;2024-01-30T09:51:43;4.13;;;1.25;;
18720;SDS011;9489;50.948;3.114;2024-01-30T09:54:10;3.63;;;2.10;;
18720;SDS011;9489;50.948;3.114;2024-01-30T09:56:39;5.53;;;2.30;;
18720;SDS011;9489;50.948;3.114;2024-01-30T09:59:04;2.78;;;1.50;;
18720;SDS011;9489;50.948;3.114;2024-01-30T10:01:30;6.03;;;1.98;;
18720;SDS011;9489;50.948;3.114;2024-01-30T10:03:56;5.43;;;1.40;;
18720;SDS011;9489;50.948;3.114;2024-01-30T10:06:22;2.75;;;1.48;;
18720;SDS011;9489;50.948;3.114;2024-01-30T10:08:52;2.17;;;1.40;;
18720;SDS011;9489;50.948;3.114;2024-01-30T10:11:18;4.13;;;1.77;;
18720;SDS011;9489;50.948;3.114;2024-01-30T10:13:44;7.43;;;1.83;;
18720;SDS011;9489;50.948;3.114;2024-01-30T10:16:09;4.95;;;2.20;;
18720;SDS011;9489;50.948;3.114;2024-01-30T10:18:35;4.82;;;1.60;;
18720;SDS011;9489;50.948;3.114;2024-01-30T10:21:01;6.03;;;1.90;;
18720;SDS011;9489;50.948;3.114;2024-01-30T10:23:26;5.35;;;1.42;;
18720;SDS011;9489;50.948;3.114;2024-01-30T10:25:52;9.40;;;1.52;;
18720;SDS011;9489;50.948;3.114;2024-01-30T10:28:18;5.43;;;1.50;;
18720;SDS011;9489;50.948;3.114;2024-01-30T10:30:43;4.13;;;1.55;;
18720;SDS011;9489;50.948;3.114;2024-01-30T10:33:09;4.72;;;1.50;;
18720;SDS011;9489;50.948;3.114;2024-01-30T10:35:34;3.67;;;1.30;;
18720;SDS011;9489;50.948;3.114;2024-01-30T10:38:00;4.57;;;1.58;;
18720;SDS011;9489;50.948;3.114;2024-01-30T10:40:27;8.10;;;1.90;;
18720;SDS011;9489;50.948;3.114;2024-01-30T10:42:55;7.13;;;1.67;;
18720;SDS011;9489;50.948;3.114;2024-01-30T10:45:22;6.32;;;1.88;;
18720;SDS011;9489;50.948;3.114;2024-01-30T10:47:51;4.13;;;1.90;;
18720;SDS011;9489;50.948;3.114;2024-01-30T10:50:19;5.85;;;1.67;;
18720;SDS011;9489;50.948;3.114;2024-01-30T10:52:45;5.85;;;1.83;;
18720;SDS011;9489;50.948;3.114;2024-01-30T10:55:13;6.63;;;1.67;;
18720;SDS011;9489;50.948;3.114;2024-01-30T10:57:40;4.80;;;1.70;;
18720;SDS011;9489;50.948;3.114;2024-01-30T11:00:07;7.68;;;1.95;;
18720;SDS011;9489;50.948;3.114;2024-01-30T11:02:36;4.43;;;1.58;;
18720;SDS011;9489;50.948;3.114;2024-01-30T11:05:07;3.55;;;1.13;;
18720;SDS011;9489;50.948;3.114;2024-01-30T11:07:33;3.15;;;1.00;;
18720;SDS011;9489;50.948;3.114;2024-01-30T11:12:26;3.33;;;1.17;;
18720;SDS011;9489;50.948;3.114;2024-01-30T11:15:02;3.95;;;1.20;;
18720;SDS011;9489;50.948;3.114;2024-01-30T11:17:39;5.30;;;1.50;;
18720;SDS011;9489;50.948;3.114;2024-01-30T11:20:09;2.70;;;1.20;;
18720;SDS011;9489;50.948;3.114;2024-01-30T11:22:51;3.10;;;1.02;;
18720;SDS011;9489;50.948;3.114;2024-01-30T11:25:19;3.58;;;1.05;;
18720;SDS011;9489;50.948;3.114;2024-01-30T11:27:46;5.03;;;1.20;;
18720;SDS011;9489;50.948;3.114;2024-01-30T11:30:26;6.18;;;1.15;;
18720;SDS011;9489;50.948;3.114;2024-01-30T11:33:02;2.88;;;0.98;;
18720;SDS011;9489;50.948;3.114;2024-01-30T11:35:40;3.50;;;1.02;;
18720;SDS011;9489;50.948;3.114;2024-01-30T11:38:13;4.55;;;1.00;;
18720;SDS011;9489;50.948;3.114;2024-01-30T11:40:39;1.27;;;0.73;;
18720;SDS011;9489;50.948;3.114;2024-01-30T11:43:06;3.90;;;0.90;;
18720;SDS011;9489;50.948;3.114;2024-01-30T11:45:33;3.50;;;1.00;;
18720;SDS011;9489;50.948;3.114;2024-01-30T11:48:00;4.10;;;1.13;;
18720;SDS011;9489;50.948;3.114;2024-01-30T11:50:28;6.32;;;1.20;;
18720;SDS011;9489;50.948;3.114;2024-01-30T11:52:58;5.40;;;1.05;;
18720;SDS011;9489;50.948;3.114;2024-01-30T11:55:24;3.53;;;1.65;;
18720;SDS011;9489;50.948;3.114;2024-01-30T11:57:51;3.88;;;0.82;;
18720;SDS011;9489;50.948;3.114;2024-01-30T12:00:20;3.75;;;1.10;;
18720;SDS011;9489;50.948;3.114;2024-01-30T12:02:49;4.03;;;1.38;;
18720;SDS011;9489;50.948;3.114;2024-01-30T12:05:16;4.00;;;1.10;;
18720;SDS011;9489;50.948;3.114;2024-01-30T12:07:44;7.18;;;1.52;;
18720;SDS011;9489;50.948;3.114;2024-01-30T12:10:11;5.05;;;1.30;;
18720;SDS011;9489;50.948;3.114;2024-01-30T12:12:39;8.15;;;2.20;;
18720;SDS011;9489;50.948;3.114;2024-01-30T12:15:06;4.53;;;3.35;;
18720;SDS011;9489;50.948;3.114;2024-01-30T12:17:33;4.35;;;1.85;;
18720;SDS011;9489;50.948;3.114;2024-01-30T12:20:02;3.15;;;1.25;;
18720;SDS011;9489;50.948;3.114;2024-01-30T12:22:39;6.13;;;1.33;;
18720;SDS011;9489;50.948;3.114;2024-01-30T12:27:35;4.63;;;1.45;;
18720;SDS011;9489;50.948;3.114;2024-01-30T12:30:05;4.22;;;1.33;;
18720;SDS011;9489;50.948;3.114;2024-01-30T12:32:35;5.07;;;1.60;;
18720;SDS011;9489;50.948;3.114;2024-01-30T12:35:01;4.85;;;1.67;;
18720;SDS011;9489;50.948;3.114;2024-01-30T12:37:27;4.15;;;1.48;;
18720;SDS011;9489;50.948;3.114;2024-01-30T12:39:54;4.63;;;1.38;;
18720;SDS011;9489;50.948;3.114;2024-01-30T12:42:20;5.22;;;1.83;;
18720;SDS011;9489;50.948;3.114;2024-01-30T12:44:49;4.25;;;1.27;;
18720;SDS011;9489;50.948;3.114;2024-01-30T12:47:15;7.03;;;2.25;;
18720;SDS011;9489;50.948;3.114;2024-01-30T12:49:44;7.70;;;1.60;;
18720;SDS011;9489;50.948;3.114;2024-01-30T12:52:13;4.63;;;1.80;;
18720;SDS011;9489;50.948;3.114;2024-01-30T12:54:41;5.78;;;1.90;;
18720;SDS011;9489;50.948;3.114;2024-01-30T12:57:07;3.67;;;1.42;;
18720;SDS011;9489;50.948;3.114;2024-01-30T12:59:32;6.05;;;2.25;;
18720;SDS011;9489;50.948;3.114;2024-01-30T13:02:00;5.25;;;1.88;;
18720;SDS011;9489;50.948;3.114;2024-01-30T13:04:26;6.88;;;2.35;;
18720;SDS011;9489;50.948;3.114;2024-01-30T13:06:52;6.35;;;1.70;;
18720;SDS011;9489;50.948;3.114;2024-01-30T13:09:18;4.57;;;1.50;;
18720;SDS011;9489;50.948;3.114;2024-01-30T13:11:44;3.78;;;1.17;;
18720;SDS011;9489;50.948;3.114;2024-01-30T13:14:10;6.70;;;1.95;;
18720;SDS011;9489;50.948;3.114;2024-01-30T13:16:36;12.00;;;2.42;;
18720;SDS011;9489;50.948;3.114;2024-01-30T13:19:02;7.28;;;2.42;;
18720;SDS011;9489;50.948;3.114;2024-01-30T13:21:28;5.00;;;1.90;;
18720;SDS011;9489;50.948;3.114;2024-01-30T13:23:53;5.80;;;1.70;;
18720;SDS011;9489;50.948;3.114;2024-01-30T13:26:20;6.88;;;2.20;;
18720;SDS011;9489;50.948;3.114;2024-01-30T13:28:46;7.30;;;2.17;;
18720;SDS011;9489;50.948;3.114;2024-01-30T13:31:12;7.63;;;2.05;;
18720;SDS011;9489;50.948;3.114;2024-01-30T13:33:41;6.32;;;1.95;;
18720;SDS011;9489;50.948;3.114;2024-01-30T13:36:07;5.28;;;2.20;;
18720;SDS011;9489;50.948;3.114;2024-01-30T13:38:34;4.68;;;1.83;;
18720;SDS011;9489;50.948;3.114;2024-01-30T13:41:00;8.30;;;2.17;;
18720;SDS011;9489;50.948;3.114;2024-01-30T13:43:25;5.72;;;2.15;;
18720;SDS011;9489;50.948;3.114;2024-01-30T13:45:51;6.35;;;2.20;;
18720;SDS011;9489;50.948;3.114;2024-01-30T13:48:17;8.02;;;2.20;;
18720;SDS011;9489;50.948;3.114;2024-01-30T13:50:43;9.93;;;3.20;;
18720;SDS011;9489;50.948;3.114;2024-01-30T13:53:08;6.32;;;2.60;;
18720;SDS011;9489;50.948;3.114;2024-01-30T13:55:35;6.72;;;2.50;;
18720;SDS011;9489;50.948;3.114;2024-01-30T13:58:01;6.97;;;2.63;;
18720;SDS011;9489;50.948;3.114;2024-01-30T14:00:27;7.32;;;2.85;;
18720;SDS011;9489;50.948;3.114;2024-01-30T14:02:52;8.35;;;3.25;;
18720;SDS011;9489;50.948;3.114;2024-01-30T14:05:23;7.03;;;3.33;;
18720;SDS011;9489;50.948;3.114;2024-01-30T14:07:49;4.53;;;3.13;;
18720;SDS011;9489;50.948;3.114;2024-01-30T14:10:16;9.75;;;4.30;;
18720;SDS011;9489;50.948;3.114;2024-01-30T14:12:42;10.43;;;4.90;;
18720;SDS011;9489;50.948;3.114;2024-01-30T14:15:13;9.75;;;5.05;;
18720;SDS011;9489;50.948;3.114;2024-01-30T14:17:40;8.30;;;4.85;;
18720;SDS011;9489;50.948;3.114;2024-01-30T14:20:05;5.38;;;4.20;;
18720;SDS011;9489;50.948;3.114;2024-01-30T14:22:32;5.93;;;4.10;;
18720;SDS011;9489;50.948;3.114;2024-01-30T14:24:59;8.55;;;4.40;;
18720;SDS011;9489;50.948;3.114;2024-01-30T14:27:25;7.57;;;4.97;;
18720;SDS011;9489;50.948;3.114;2024-01-30T14:29:51;5.55;;;3.58;;
18720;SDS011;9489;50.948;3.114;2024-01-30T14:32:16;6.78;;;4.43;;
18720;SDS011;9489;50.948;3.114;2024-01-30T14:34:42;8.55;;;4.00;;
18720;SDS011;9489;50.948;3.114;2024-01-30T14:37:08;4.78;;;3.60;;
18720;SDS011;9489;50.948;3.114;2024-01-30T14:39:34;7.70;;;4.03;;
18720;SDS011;9489;50.948;3.114;2024-01-30T14:42:02;6.43;;;3.75;;
18720;SDS011;9489;50.948;3.114;2024-01-30T14:44:29;7.28;;;4.38;;
18720;SDS011;9489;50.948;3.114;2024-01-30T14:46:55;5.28;;;3.50;;